Airfield :
LOGIN :

Register | Disclaimer

   EN    FR    IT 

 










Legend :    VFR   Marginal VFR   IFR   Intensive IFR   Very Intensive IFR
Visi :
Ceiling :
>= 8 km
>= 3000ft
5 to 8 km
1000 to 3000 ft
1500m to 5 km
500 to 1000 ft
800 to 1500m
200 to 500 ft
< 800m
< 200 ft
Symbols :   Thunderstorms  Fog  Heavy snow  Heavy precipitations  Wind > 20 kt
SIGMETs :     Misc.  Thunderstorms  Icing  Turbulence  Mountain Waves  Volcanic Ashes







- Airport Elevation : 63 ft
- IATA code : BZM


EHWO - Woensdrecht Airbase

CURRENT METAR :
  • 160725Z AUTO 22005KT 180V240 1500 BR OVC001 03/03 Q1009 RED

EXPIRED METARs :
  • 160719Z AUTO 21005KT 170V240 1500 BR OVC001 02/02 Q1008 RED
  • 160655Z AUTO 20005KT 180V250 1700 BR OVC001 02/02 Q1008 RED
  • 160625Z AUTO 20006KT 160V230 2100 BR BKN001 OVC003 02/02 Q1008 RED
  • 160556Z AUTO 18005KT 140V220 3200 BR BKN002 OVC004 01/01 Q1008 AMB
  • 160551Z AUTO 19005KT 130V200 3300 BR BKN003 OVC004 01/01 Q1008 YLO
  • 160525Z AUTO 19004KT 120V220 4400 BR FEW004 OVC005 01/01 Q1008 YLO
  • 160455Z AUTO 18004KT 140V210 4000 BR FEW004 OVC006 01/01 Q1008 YLO

Expired Forecast.
No reported NOTAMs for that airfield.



MET'MAP, your aeronautical weather chart ! - Copyright ORBIFLY December 2007 - Disclaimer

ORBIFLY MET'MAP TEAM :

Programming & Development : Alexandra Zaïnal
Concept & Development : Baudouin d'Aumeries
Co-Development & Prog : Marc-Olivier Méhu
Technical & hardware support : Manuel Goepfert

Contact : metmap@orbifly.com




SOURCES & CREDITS :

   NOAA